createdAt,value
2022-08-02T00:00:41.930Z,22.90
2022-08-02T00:03:09.840Z,22.90
2022-08-02T00:05:37.681Z,22.80
2022-08-02T00:08:08.185Z,22.80
2022-08-02T00:10:36.028Z,22.80
2022-08-02T00:13:03.991Z,22.80
2022-08-02T00:15:31.847Z,22.80
2022-08-02T00:18:01.033Z,22.80
2022-08-02T00:20:28.964Z,22.80
2022-08-02T00:22:57.080Z,22.80
2022-08-02T00:25:24.879Z,22.70
2022-08-02T00:27:52.697Z,22.70
2022-08-02T00:30:20.479Z,22.70
2022-08-02T00:32:48.224Z,22.70
2022-08-02T00:35:17.629Z,22.70
2022-08-02T00:37:45.672Z,22.70
2022-08-02T00:40:13.922Z,22.60
2022-08-02T00:42:42.145Z,22.60
2022-08-02T00:45:10.581Z,22.60
2022-08-02T00:47:38.509Z,22.60
2022-08-02T00:50:07.170Z,22.60
2022-08-02T00:52:36.453Z,22.50
2022-08-02T00:55:04.631Z,22.50
2022-08-02T00:57:32.577Z,22.50
2022-08-02T01:00:00.359Z,22.50
2022-08-02T01:02:28.226Z,22.50
2022-08-02T01:04:56.066Z,22.50
2022-08-02T01:07:23.951Z,22.40
2022-08-02T01:09:55.937Z,22.50
2022-08-02T01:12:23.836Z,22.40
2022-08-02T01:14:53.096Z,22.40
2022-08-02T01:17:27.321Z,22.40
2022-08-02T01:20:05.938Z,22.40
2022-08-02T01:23:04.037Z,22.40
2022-08-02T01:25:54.464Z,22.30
2022-08-02T01:28:38.902Z,22.30
2022-08-02T01:31:15.089Z,22.30
2022-08-02T01:33:46.567Z,22.30
2022-08-02T01:36:18.545Z,22.30
2022-08-02T01:38:49.429Z,22.30
2022-08-02T01:41:20.747Z,22.30
2022-08-02T01:43:53.331Z,22.30
2022-08-02T01:46:22.531Z,22.30
2022-08-02T01:48:51.877Z,22.30
2022-08-02T01:51:42.970Z,22.30
2022-08-02T01:54:13.939Z,22.30
2022-08-02T01:56:42.933Z,22.30
2022-08-02T01:59:14.955Z,22.30
2022-08-02T02:01:43.636Z,22.30
2022-08-02T02:04:12.410Z,22.20
2022-08-02T02:06:42.110Z,22.30
2022-08-02T02:09:10.856Z,22.30
2022-08-02T02:12:11.505Z,22.30
2022-08-02T02:14:30.117Z,22.30
2022-08-02T02:17:00.182Z,22.30
2022-08-02T02:19:30.115Z,22.30
2022-08-02T02:21:58.636Z,22.30
2022-08-02T02:24:27.075Z,22.30
2022-08-02T02:26:55.880Z,22.30
2022-08-02T02:29:29.157Z,22.20
2022-08-02T02:31:59.434Z,22.20
2022-08-02T02:34:30.070Z,22.10
2022-08-02T02:37:02.266Z,22.20
2022-08-02T02:39:30.888Z,22.10
2022-08-02T02:42:03.084Z,22.00
2022-08-02T02:44:33.371Z,22.00
2022-08-02T02:47:02.816Z,22.00
2022-08-02T02:49:35.237Z,22.00
2022-08-02T02:52:04.746Z,21.90
2022-08-02T02:54:35.418Z,21.90
2022-08-02T02:57:06.444Z,21.90
2022-08-02T02:59:36.513Z,21.90
2022-08-02T03:02:18.244Z,21.90
2022-08-02T03:04:57.306Z,21.90
2022-08-02T03:07:26.497Z,21.90
2022-08-02T03:09:55.206Z,21.90
2022-08-02T03:12:30.872Z,21.80
2022-08-02T03:15:01.424Z,21.80
2022-08-02T03:17:39.733Z,21.80
2022-08-02T03:20:11.948Z,21.70
2022-08-02T03:22:40.014Z,21.70
2022-08-02T03:25:08.839Z,21.70
2022-08-02T03:27:36.773Z,21.70
2022-08-02T03:30:08.530Z,21.70
2022-08-02T03:32:37.962Z,21.60
2022-08-02T03:35:08.318Z,21.60
2022-08-02T03:37:37.915Z,21.60
2022-08-02T03:40:09.546Z,21.50
2022-08-02T03:42:37.512Z,21.50
2022-08-02T03:45:11.116Z,21.50
2022-08-02T03:47:40.556Z,21.40
2022-08-02T03:50:12.588Z,21.40
2022-08-02T03:52:42.767Z,21.40
2022-08-02T03:55:12.451Z,21.40
2022-08-02T03:57:40.912Z,21.40
2022-08-02T04:00:12.992Z,21.40
2022-08-02T04:02:41.188Z,21.40
2022-08-02T04:05:09.739Z,21.40
2022-08-02T04:08:33.817Z,21.40
2022-08-02T04:10:25.789Z,21.50
2022-08-02T04:12:54.103Z,21.40
2022-08-02T04:15:24.407Z,21.40
2022-08-02T04:17:56.454Z,21.40
2022-08-02T04:20:28.663Z,21.50
2022-08-02T04:23:01.389Z,21.50
2022-08-02T04:25:35.391Z,21.40
2022-08-02T04:28:17.584Z,21.30
2022-08-02T04:30:48.148Z,21.20
2022-08-02T04:33:16.745Z,21.10
2022-08-02T04:35:45.406Z,21.10
2022-08-02T04:38:15.488Z,21.00
2022-08-02T04:40:51.735Z,21.00
2022-08-02T04:43:20.540Z,21.10
2022-08-02T04:45:52.218Z,21.10
2022-08-02T04:48:20.257Z,21.10
2022-08-02T04:50:48.315Z,21.20
2022-08-02T04:53:16.161Z,21.20
2022-08-02T04:55:44.049Z,21.20
2022-08-02T04:58:38.260Z,22.60
2022-08-02T05:01:01.864Z,21.20
2022-08-02T05:03:29.745Z,21.20
2022-08-02T05:05:58.382Z,21.30
2022-08-02T05:08:26.214Z,21.30
2022-08-02T05:10:54.119Z,21.30
2022-08-02T05:13:22.030Z,21.50
2022-08-02T05:15:50.284Z,21.50
2022-08-02T05:18:19.564Z,21.50
2022-08-02T05:23:16.713Z,21.50
2022-08-02T05:25:44.524Z,21.40
2022-08-02T05:28:12.494Z,21.30
2022-08-02T05:30:40.780Z,21.30
2022-08-02T05:33:08.715Z,21.30
2022-08-02T05:35:37.964Z,21.30
2022-08-02T05:38:05.836Z,21.30
2022-08-02T05:40:46.671Z,21.30
2022-08-02T05:43:23.220Z,21.40
2022-08-02T05:48:21.838Z,21.40
2022-08-02T05:50:57.910Z,21.40
2022-08-02T05:53:34.314Z,21.50
2022-08-02T05:56:10.432Z,21.50
2022-08-02T05:58:48.385Z,21.50
2022-08-02T06:01:24.053Z,21.60
2022-08-02T06:03:53.656Z,21.80
2022-08-02T06:06:26.245Z,21.80
2022-08-02T06:09:00.346Z,22.00
2022-08-02T06:11:36.983Z,22.10
2022-08-02T06:14:06.166Z,22.10
2022-08-02T06:16:41.997Z,22.20
2022-08-02T06:19:11.036Z,22.20
2022-08-02T06:22:35.919Z,22.30
2022-08-02T06:24:31.474Z,22.30
2022-08-02T06:27:00.809Z,22.40
2022-08-02T06:29:30.062Z,22.40
2022-08-02T06:31:59.386Z,22.50
2022-08-02T06:34:27.208Z,22.50
2022-08-02T06:37:07.692Z,22.60
2022-08-02T06:42:25.565Z,22.60
2022-08-02T06:49:58.251Z,22.70
2022-08-02T06:52:30.844Z,22.70
2022-08-02T06:55:00.170Z,22.70
2022-08-02T06:57:28.535Z,22.70
2022-08-02T06:59:56.614Z,22.80
2022-08-02T07:02:24.683Z,22.90
2022-08-02T07:04:52.677Z,23.00
2022-08-02T07:07:20.586Z,23.00
2022-08-02T07:09:57.016Z,23.00
2022-08-02T07:12:31.556Z,23.10
2022-08-02T07:15:00.495Z,23.10
2022-08-02T07:17:28.789Z,23.20
2022-08-02T07:19:56.954Z,23.20
2022-08-02T07:22:26.780Z,23.30
2022-08-02T07:24:57.853Z,23.30
2022-08-02T07:27:26.404Z,23.40
2022-08-02T07:29:54.932Z,23.40
2022-08-02T07:32:24.878Z,23.40
2022-08-02T07:34:55.051Z,23.30
2022-08-02T07:37:35.208Z,23.30
2022-08-02T07:40:20.180Z,23.20
2022-08-02T07:42:49.750Z,23.20
2022-08-02T07:45:17.653Z,23.20
2022-08-02T07:47:46.565Z,23.30
2022-08-02T07:50:15.706Z,23.40
2022-08-02T07:52:44.574Z,23.40
2022-08-02T07:55:14.837Z,23.60
2022-08-02T07:57:46.518Z,23.60
2022-08-02T08:00:17.134Z,23.80
2022-08-02T08:02:45.785Z,23.90
2022-08-02T08:05:14.587Z,23.90
2022-08-02T08:07:42.716Z,24.00
2022-08-02T08:10:11.496Z,24.00
2022-08-02T08:12:40.804Z,24.20
2022-08-02T08:15:10.157Z,24.20
2022-08-02T08:17:38.563Z,24.20
2022-08-02T08:20:07.599Z,24.30
2022-08-02T08:22:35.408Z,24.30
2022-08-02T08:25:05.481Z,24.40
2022-08-02T08:27:34.969Z,24.50
2022-08-02T08:30:05.362Z,24.50
2022-08-02T08:32:33.190Z,24.50
2022-08-02T08:35:03.547Z,24.70
2022-08-02T08:37:35.274Z,24.70
2022-08-02T08:40:04.149Z,24.70
2022-08-02T08:42:33.248Z,24.70
2022-08-02T08:45:01.552Z,24.70
2022-08-02T08:47:36.215Z,24.60
2022-08-02T08:50:10.428Z,24.70
2022-08-02T08:52:43.686Z,24.80
2022-08-02T08:55:12.689Z,24.80
2022-08-02T08:57:43.604Z,24.90
2022-08-02T09:00:13.891Z,25.00
2022-08-02T09:02:43.870Z,25.10
2022-08-02T09:05:15.030Z,25.10
2022-08-02T09:07:45.058Z,25.10
2022-08-02T09:10:41.647Z,25.20
2022-08-02T09:13:39.018Z,25.20
2022-08-02T09:16:11.624Z,25.30
2022-08-02T09:18:43.827Z,25.40
2022-08-02T09:21:24.204Z,25.50
2022-08-02T09:23:58.810Z,25.60
2022-08-02T09:26:33.306Z,25.60
2022-08-02T09:29:06.744Z,25.70
2022-08-02T09:31:49.433Z,25.80
2022-08-02T09:34:20.495Z,25.90
2022-08-02T09:36:54.329Z,25.90
2022-08-02T09:39:26.639Z,26.00
2022-08-02T09:42:12.028Z,26.10
2022-08-02T09:45:08.114Z,26.10
2022-08-02T09:47:42.222Z,26.10
2022-08-02T09:50:16.996Z,26.20
2022-08-02T09:52:50.532Z,26.30
2022-08-02T09:55:19.281Z,26.40
2022-08-02T09:58:21.765Z,26.50
2022-08-02T10:00:57.455Z,26.50
2022-08-02T10:03:40.125Z,26.60
2022-08-02T10:06:14.302Z,26.60
2022-08-02T10:08:47.768Z,26.70
2022-08-02T10:11:17.548Z,26.80
2022-08-02T10:13:49.922Z,26.90
2022-08-02T10:16:19.937Z,26.90
2022-08-02T10:19:01.322Z,27.10
2022-08-02T10:21:46.745Z,27.20
2022-08-02T10:24:32.953Z,27.20
2022-08-02T10:27:05.128Z,27.20
2022-08-02T10:29:53.455Z,27.20
2022-08-02T10:32:31.382Z,27.20
2022-08-02T10:35:18.557Z,27.20
2022-08-02T10:37:58.744Z,27.30
2022-08-02T10:40:44.816Z,27.40
2022-08-02T10:43:14.769Z,27.40
2022-08-02T10:45:45.760Z,27.60
2022-08-02T10:48:24.229Z,27.70
2022-08-02T10:51:01.375Z,27.70
2022-08-02T10:53:35.283Z,27.70
2022-08-02T10:56:09.395Z,27.70
2022-08-02T10:58:52.953Z,27.70
2022-08-02T11:01:38.717Z,27.90
2022-08-02T11:04:13.883Z,27.90
2022-08-02T11:07:14.510Z,28.00
2022-08-02T11:09:49.144Z,28.00
2022-08-02T11:12:19.645Z,28.10
2022-08-02T11:15:13.933Z,28.20
2022-08-02T11:17:54.654Z,28.30
2022-08-02T11:20:30.769Z,28.40
2022-08-02T11:23:44.635Z,28.50
2022-08-02T11:26:47.092Z,28.50
2022-08-02T11:29:20.615Z,28.50
2022-08-02T11:31:49.683Z,28.50
2022-08-02T11:34:36.315Z,28.50
2022-08-02T11:37:10.581Z,28.60
2022-08-02T11:39:42.356Z,28.70
2022-08-02T11:42:18.196Z,28.60
2022-08-02T11:44:50.994Z,28.60
2022-08-02T11:47:25.423Z,28.70
2022-08-02T11:52:39.640Z,28.70
2022-08-02T11:55:13.254Z,28.70
2022-08-02T11:58:01.750Z,28.70
2022-08-02T12:00:47.058Z,28.80
2022-08-02T12:03:21.358Z,28.70
2022-08-02T12:06:06.122Z,28.50
2022-08-02T12:08:38.341Z,28.60
2022-08-02T12:11:06.298Z,28.60
2022-08-02T12:16:48.945Z,28.60
2022-08-02T12:19:20.054Z,28.60
2022-08-02T12:24:29.012Z,28.80
2022-08-02T12:26:56.990Z,29.00
2022-08-02T12:29:57.871Z,29.10
2022-08-02T12:32:25.861Z,29.10
2022-08-02T12:35:05.968Z,29.10
2022-08-02T12:40:27.052Z,29.00
2022-08-02T12:42:57.551Z,29.10
2022-08-02T12:45:40.813Z,29.20
2022-08-02T12:48:10.089Z,29.30
2022-08-02T12:50:39.517Z,29.30
2022-08-02T12:53:09.427Z,29.30
2022-08-02T12:55:59.319Z,29.40
2022-08-02T12:58:28.243Z,29.30
2022-08-02T13:00:59.857Z,29.20
2022-08-02T13:04:10.816Z,29.10
2022-08-02T13:06:41.871Z,29.20
2022-08-02T13:09:13.025Z,29.30
2022-08-02T13:11:43.049Z,29.20
2022-08-02T13:14:12.227Z,29.20
2022-08-02T13:16:42.126Z,29.20
2022-08-02T13:19:10.457Z,29.20
2022-08-02T13:21:40.910Z,29.30
2022-08-02T13:24:40.030Z,29.40
2022-08-02T13:27:14.262Z,29.70
2022-08-02T13:29:42.180Z,29.80
2022-08-02T13:32:12.008Z,29.90
2022-08-02T13:34:40.242Z,29.90
2022-08-02T13:37:08.231Z,29.80
2022-08-02T13:39:36.192Z,29.80
2022-08-02T13:42:04.221Z,29.90
2022-08-02T13:44:33.954Z,30.00
2022-08-02T13:49:51.407Z,30.00
2022-08-02T13:52:20.738Z,30.10
2022-08-02T13:54:48.695Z,30.10
2022-08-02T13:57:16.748Z,30.10
2022-08-02T13:59:56.123Z,30.10
2022-08-02T14:02:27.965Z,30.20
2022-08-02T14:04:57.814Z,30.30
2022-08-02T14:07:25.745Z,30.40
2022-08-02T14:09:53.801Z,30.50
2022-08-02T14:12:21.709Z,30.70
2022-08-02T14:14:49.594Z,30.80
2022-08-02T14:17:18.732Z,30.80
2022-08-02T14:19:46.697Z,30.80
2022-08-02T14:22:16.013Z,31.00
2022-08-02T14:24:44.400Z,30.90
2022-08-02T14:27:13.412Z,31.10
2022-08-02T14:29:41.324Z,31.20
2022-08-02T14:32:10.019Z,31.20
2022-08-02T14:34:38.222Z,31.20
2022-08-02T14:37:06.114Z,31.30
2022-08-02T14:39:43.136Z,31.30
2022-08-02T14:42:23.282Z,31.40
2022-08-02T14:44:51.153Z,31.40
2022-08-02T14:47:19.107Z,31.40
2022-08-02T14:49:50.060Z,31.50
2022-08-02T14:52:18.470Z,31.40
2022-08-02T14:54:48.077Z,31.40
2022-08-02T14:57:16.887Z,31.40
2022-08-02T14:59:44.745Z,31.40
2022-08-02T15:02:13.943Z,31.40
2022-08-02T15:04:43.706Z,31.40
2022-08-02T15:07:12.473Z,31.30
2022-08-02T15:09:40.364Z,31.20
2022-08-02T15:12:10.755Z,30.90
2022-08-02T15:14:39.387Z,30.90
2022-08-02T15:17:07.866Z,30.80
2022-08-02T15:19:57.673Z,29.50
2022-08-02T15:22:23.638Z,30.90
2022-08-02T15:24:51.995Z,30.90
2022-08-02T15:27:22.028Z,30.80
2022-08-02T15:29:49.867Z,30.90
2022-08-02T15:32:19.486Z,30.90
2022-08-02T15:34:47.664Z,30.90
2022-08-02T15:37:15.487Z,31.00
2022-08-02T15:39:43.320Z,31.00
2022-08-02T15:42:11.811Z,31.00
2022-08-02T15:44:41.454Z,31.00
2022-08-02T15:47:09.750Z,31.00
2022-08-02T15:49:41.257Z,30.90
2022-08-02T15:52:09.979Z,31.00
2022-08-02T15:54:37.991Z,30.90
2022-08-02T15:57:06.343Z,30.70
2022-08-02T15:59:34.188Z,30.60
2022-08-02T16:02:03.943Z,30.50
2022-08-02T16:04:32.031Z,30.50
2022-08-02T16:07:01.580Z,30.50
2022-08-02T16:09:29.958Z,30.50
2022-08-02T16:11:57.981Z,30.50
2022-08-02T16:14:25.947Z,30.50
2022-08-02T16:16:53.786Z,30.50
2022-08-02T16:19:46.241Z,30.60
2022-08-02T16:22:12.396Z,30.70
2022-08-02T16:24:40.720Z,30.70
2022-08-02T16:27:09.306Z,30.80
2022-08-02T16:29:37.539Z,30.90
2022-08-02T16:32:06.704Z,31.00
2022-08-02T16:34:57.049Z,31.00
2022-08-02T16:37:23.861Z,31.00
2022-08-02T16:39:52.753Z,30.90
2022-08-02T16:42:25.611Z,31.00
2022-08-02T16:44:54.706Z,31.10
2022-08-02T16:47:36.942Z,31.10
2022-08-02T16:50:12.468Z,31.40
2022-08-02T16:52:40.456Z,31.60
2022-08-02T16:55:11.098Z,31.70
2022-08-02T16:57:43.288Z,31.80
2022-08-02T17:00:15.532Z,31.90
2022-08-02T17:02:44.156Z,32.20
2022-08-02T17:05:16.726Z,32.20
2022-08-02T17:08:07.232Z,32.40
2022-08-02T17:10:34.566Z,32.60
2022-08-02T17:13:11.199Z,32.90
2022-08-02T17:16:16.114Z,33.00
2022-08-02T17:18:28.040Z,33.20
2022-08-02T17:20:57.895Z,33.40
2022-08-02T17:24:03.873Z,33.90
2022-08-02T17:26:14.180Z,33.90
2022-08-02T17:29:03.743Z,34.30
2022-08-02T17:31:43.070Z,34.40
2022-08-02T17:34:12.567Z,35.10
2022-08-02T17:36:41.783Z,35.20
2022-08-02T17:39:09.644Z,35.70
2022-08-02T17:41:48.814Z,35.80
2022-08-02T17:44:36.857Z,36.00
2022-08-02T17:47:06.467Z,35.90
2022-08-02T17:49:37.150Z,35.70
2022-08-02T17:52:49.097Z,35.70
2022-08-02T17:55:02.177Z,35.70
2022-08-02T17:57:57.044Z,35.70
2022-08-02T18:00:19.985Z,36.00
2022-08-02T18:02:52.821Z,36.10
2022-08-02T18:05:23.591Z,36.10
2022-08-02T18:08:08.924Z,36.10
2022-08-02T18:10:36.860Z,36.00
2022-08-02T18:13:05.161Z,36.00
2022-08-02T18:15:33.351Z,36.10
2022-08-02T18:18:01.393Z,36.10
2022-08-02T18:20:29.412Z,36.00
2022-08-02T18:22:58.695Z,35.90
2022-08-02T18:25:36.865Z,35.70
2022-08-02T18:28:15.157Z,35.40
2022-08-02T18:30:43.216Z,35.10
2022-08-02T18:33:56.152Z,34.60
2022-08-02T18:35:59.030Z,34.70
2022-08-02T18:38:30.057Z,34.80
2022-08-02T18:41:02.352Z,35.30
2022-08-02T18:43:31.688Z,35.30
2022-08-02T18:46:15.599Z,35.40
2022-08-02T18:48:46.952Z,35.50
2022-08-02T18:51:18.684Z,35.40
2022-08-02T18:53:48.819Z,34.90
2022-08-02T18:56:20.392Z,34.50
2022-08-02T18:58:52.701Z,33.90
2022-08-02T19:01:31.502Z,33.40
2022-08-02T19:04:01.161Z,32.70
2022-08-02T19:06:29.514Z,32.30
2022-08-02T19:09:05.313Z,31.50
2022-08-02T19:11:50.161Z,31.50
2022-08-02T19:14:27.472Z,31.10
2022-08-02T19:16:57.745Z,30.80
2022-08-02T19:19:28.856Z,30.50
2022-08-02T19:22:15.799Z,30.00
2022-08-02T19:24:46.159Z,29.90
2022-08-02T19:27:20.690Z,29.80
2022-08-02T19:29:59.044Z,29.50
2022-08-02T19:32:40.092Z,29.40
2022-08-02T19:35:19.599Z,29.30
2022-08-02T19:38:07.124Z,29.10
2022-08-02T19:40:35.426Z,29.00
2022-08-02T19:44:26.937Z,28.80
2022-08-02T19:45:57.025Z,28.80
2022-08-02T19:48:26.854Z,28.60
2022-08-02T19:51:01.093Z,28.60
2022-08-02T19:53:48.775Z,28.50
2022-08-02T19:56:24.868Z,28.40
2022-08-02T19:58:57.836Z,28.40
2022-08-02T20:01:36.817Z,28.30
2022-08-02T20:04:07.139Z,28.30
2022-08-02T20:06:34.999Z,28.30
2022-08-02T20:09:03.593Z,28.20
2022-08-02T20:14:27.248Z,28.10
2022-08-02T20:16:56.146Z,28.00
2022-08-02T20:19:25.064Z,27.90
2022-08-02T20:21:59.690Z,27.90
2022-08-02T20:24:29.358Z,27.90
2022-08-02T20:26:58.985Z,27.80
2022-08-02T20:29:43.970Z,27.70
2022-08-02T20:32:21.809Z,27.60
2022-08-02T20:34:52.437Z,27.60
2022-08-02T20:37:59.383Z,27.60
2022-08-02T20:40:10.141Z,27.60
2022-08-02T20:42:44.854Z,27.50
2022-08-02T20:45:17.935Z,27.50
2022-08-02T20:47:49.703Z,27.40
2022-08-02T20:50:37.609Z,27.40
2022-08-02T20:53:07.018Z,27.40
2022-08-02T20:55:36.642Z,27.40
2022-08-02T20:58:05.981Z,27.30
2022-08-02T21:00:42.043Z,27.30
2022-08-02T21:03:11.556Z,27.30
2022-08-02T21:05:54.795Z,27.20
2022-08-02T21:08:24.091Z,27.20
2022-08-02T21:10:53.332Z,27.10
2022-08-02T21:13:24.065Z,27.00
2022-08-02T21:15:55.774Z,27.00
2022-08-02T21:18:36.050Z,27.00
2022-08-02T21:21:09.103Z,27.00
2022-08-02T21:23:37.542Z,27.00
2022-08-02T21:26:06.506Z,27.00
2022-08-02T21:28:43.269Z,27.00
2022-08-02T21:33:56.898Z,26.90
2022-08-02T21:36:30.899Z,26.70
2022-08-02T21:41:49.174Z,26.50
2022-08-02T21:44:18.092Z,26.40
2022-08-02T21:46:49.159Z,26.40
2022-08-02T21:49:17.790Z,26.40
2022-08-02T21:51:49.826Z,26.30
2022-08-02T21:54:19.862Z,26.30
2022-08-02T21:56:48.977Z,26.20
2022-08-02T21:59:18.248Z,26.10
2022-08-02T22:01:56.982Z,26.10
2022-08-02T22:04:25.833Z,26.00
2022-08-02T22:06:54.076Z,26.00
2022-08-02T22:09:43.568Z,26.00
2022-08-02T22:12:12.762Z,28.10
2022-08-02T22:14:49.766Z,25.80
2022-08-02T22:17:50.818Z,25.80
2022-08-02T22:20:13.662Z,25.80
2022-08-02T22:22:41.833Z,25.70
2022-08-02T22:25:26.531Z,25.70
2022-08-02T22:28:15.874Z,25.70
2022-08-02T22:30:46.327Z,25.60
2022-08-02T22:33:41.995Z,25.60
2022-08-02T22:36:14.733Z,25.40
2022-08-02T22:38:44.678Z,25.40
2022-08-02T22:41:13.462Z,25.30
2022-08-02T22:43:41.787Z,25.30
2022-08-02T22:46:10.388Z,25.30
2022-08-02T22:48:45.443Z,25.30
2022-08-02T22:51:14.607Z,25.30
2022-08-02T22:53:43.842Z,25.30
2022-08-02T22:56:12.655Z,25.20
2022-08-02T22:59:05.898Z,28.10
2022-08-02T23:01:29.069Z,25.20
2022-08-02T23:03:58.488Z,25.20
2022-08-02T23:06:26.344Z,25.20
2022-08-02T23:08:54.129Z,25.10
2022-08-02T23:11:23.119Z,25.10
2022-08-02T23:13:50.960Z,25.00
2022-08-02T23:16:39.457Z,25.00
2022-08-02T23:19:26.898Z,24.90
2022-08-02T23:22:02.119Z,24.90
2022-08-02T23:24:32.886Z,24.90
2022-08-02T23:27:00.762Z,24.80
2022-08-02T23:29:28.615Z,24.80
2022-08-02T23:34:28.288Z,24.80
2022-08-02T23:36:56.126Z,24.80
2022-08-02T23:39:24.048Z,24.80
2022-08-02T23:41:55.126Z,24.80
2022-08-02T23:44:23.703Z,24.70
2022-08-02T23:46:51.915Z,24.70
2022-08-02T23:49:20.621Z,24.70
2022-08-02T23:51:50.412Z,24.60
2022-08-02T23:54:18.649Z,24.60
2022-08-02T23:56:46.731Z,24.60
2022-08-02T23:59:14.767Z,24.60
